Tiempo atmosférico en la estación meteorológica de Belorado, Burgos (875 m.)



Fecha
DESCASC
Temp. máxima en grados centígrados (hora)
DESCASC
Temp. mínima en grados centígrados (hora)
DESCASC
Temp. media en grados centígrados
DESCASC
Racha de viento máxima en m/sg (hora)
DESCASC
Velocidad máxima media en intervalos de 10 minutos(hora)
DESCASC
Precipitaciones diarias en mm
DESCASC
Precipitaciones de 00:00 a 06:00 en mm
DESCASC
Precipitaciones de 06:00 a 12:00 en mm
DESCASC
Precipitaciones de 12:00 a 18:00 en mm
DESCASC
Precipitaciones de 18:00 a 24:00 en mm
DESCASC
20-09-2018 -- (--) -- (--) -- -- (--) -- (--) -- -- -- 0 0
19-09-2018 -- (--) -- (--) -- -- (--) -- (--) -- 0 0 0 --
18-09-2018 -- (--) -- (--) -- 0 (00:10) 0 (00:10) 0 0 0 0 0
17-09-2018 -- (--) -- (--) -- -- (--) -- (--) 4.4 4.4 0 0 0
16-09-2018 -- (--) -- (--) -- 6.94 (01:30) 4.44 (23:50) 0 0 0 0 0
15-09-2018 -- (--) -- (--) -- 9.72 (00:40) 4.44 (02:30) 0 0 0 0 0
14-09-2018 -- (--) -- (--) -- 6.67 (03:10) 4.17 (03:10) 0 0 0 0 0
13-09-2018 -- (--) -- (--) -- 6.94 (01:40) 3.89 (03:10) 0 0 0 0 0
12-09-2018 -- (--) -- (--) -- 8.06 (04:20) 4.17 (04:20) 0 0 0 0 0
11-09-2018 -- (--) -- (--) -- 7.78 (01:00) 4.72 (01:10) 0 0 0 0 0
10-09-2018 -- (--) -- (--) -- 6.94 (23:10) 3.61 (23:10) 0 0 0 0 0
09-09-2018 -- (--) -- (--) -- -- (--) -- (--) -- 13.4 0 -- 0
08-09-2018 -- (--) -- (--) -- -- (--) -- (--) 5.8 0 0 5.8 0
07-09-2018 21.1 (18:00) 11.7 (00:00) 16.4 8.33 (16:30) 3.89 (15:10) 0.8 0.8 0 0 0
06-09-2018 21 (16:30) 13.5 (00:00) 17.3 7.22 (17:30) 5 (17:30) 0 0 0 0 0
05-09-2018 19.1 (17:30) 12.7 (00:00) 15.9 6.39 (20:30) 3.61 (17:50) 31.4 0 0 31.2 0.2
04-09-2018 23.3 (16:00) 9.7 (00:00) 16.5 7.5 (16:40) 4.44 (17:30) 0.4 0.4 0 0 0
03-09-2018 26.1 (15:40) 12.3 (00:00) 19.2 9.17 (23:20) 5.83 (23:20) 5 0 0 0 5
02-09-2018 -- (--) -- (--) -- 6.94 (17:40) 3.89 (18:20) 0 0 0 0 0
01-09-2018 -- (--) -- (--) -- 7.5 (19:30) 4.17 (15:40) 0 0 0 0 0
31-08-2018 -- (--) -- (--) -- 9.44 (15:00) 4.17 (19:10) 0 0 0 0 0
30-08-2018 -- (--) -- (--) -- 7.22 (17:20) 4.17 (19:30) 0 0 0 0 0
29-08-2018 -- (--) -- (--) -- 11.39 (16:50) 5.56 (17:10) 0 0 0 0 0
28-08-2018 -- (--) -- (--) -- 10.56 (16:30) 5.28 (15:10) 0 0 0 0 0
27-08-2018 -- (--) -- (--) -- 6.39 (16:00) 4.17 (19:40) 0 0 0 0 0
26-08-2018 -- (--) -- (--) -- 7.5 (15:10) 3.61 (19:20) 0 0 0 0 0
25-08-2018 -- (--) -- (--) -- 7.5 (12:50) 4.44 (17:50) 0 0 0 0 0
24-08-2018 -- (--) -- (--) -- 8.33 (19:20) 4.17 (19:10) 0 0 0 0 0

Gráficas

Temp. máximas Temp. mínimas Temp. medias Precipitaciones Rachas de viento máximas Velocidades máximas media en intervalos de 10 minutos

Datos horarios

Fecha y hora oficial Temperatura (ºC) Velocidad del viento (km/h) Dirección del viento Racha (km/h) Dirección de racha Precipitación (mm) Presión (hPa) Tendencia (hPa) Humedad (%)
2018-09-22 23:00:00 16.8 5 Este 7 Este 0 -- -- 71
2018-09-22 22:00:00 18.3 6 Este 9 Este 0 -- -- 63
2018-09-22 21:00:00 20.2 7 Este 16 Este 0 -- -- 52
2018-09-22 20:00:00 23.9 12 Este 20 Este 0 -- -- 40
2018-09-22 19:00:00 26.7 14 Este 21 Este 0 -- -- 30
2018-09-22 18:00:00 27.9 13 Este 23 Este 0 -- -- 27
2018-09-22 17:00:00 28.4 2 Sudeste 17 Oeste 0 -- -- 25
2018-09-22 16:00:00 28.1 6 Norte 19 Oeste 0 -- -- 25
2018-09-22 15:00:00 27.2 8 Oeste 20 Oeste 0 -- -- 26
2018-09-22 14:00:00 26.6 14 Oeste 23 Oeste 0 -- -- 27
2018-09-22 13:00:00 24.9 7 Oeste 14 Oeste 0 -- -- 35
2018-09-22 12:00:00 21.7 3 Norte 10 Norte 0 -- -- 52
2018-09-22 11:00:00 18.2 4 Norte 11 Oeste 0 -- -- 68
2018-09-22 10:00:00 16.5 2 Oeste 8 Oeste 0 -- -- 70
2018-09-22 09:00:00 12.7 0 Calma 7 Sur 0 -- -- 90
2018-09-22 08:00:00 11.5 3 Sudoeste 6 Oeste 0 -- -- 94
2018-09-22 07:00:00 11.9 0 Calma 8 Sur 0 -- -- 94
2018-09-22 06:00:00 11.4 3 Sudoeste 11 Sur 0 -- -- 92
2018-09-22 05:00:00 12.8 3 Sudoeste 9 Sur 0 -- -- 91
2018-09-22 04:00:00 13.7 2 Sur 6 Este 0 -- -- 95
2018-09-22 03:00:00 13.6 0 Calma 13 Norte 0 -- -- 94
2018-09-22 02:00:00 13.4 5 Norte 10 Norte 0 -- -- 91
2018-09-22 01:00:00 14 5 Este 13 Este 0 -- -- 89
2018-09-22 00:00:00 15.2 7 Nordeste 16 Este 0 -- -- 87
2018-09-21 23:00:00 14.8 10 Este 19 Este 0 -- -- 87
2018-09-21 22:00:00 15.3 10 Este 19 Este 0 -- -- 83
2018-09-21 21:00:00 16.5 11 Este 22 Este 0 -- -- 74
2018-09-21 20:00:00 18.3 14 Este 24 Este 0 -- -- 65
2018-09-21 19:00:00 21.2 14 Nordeste 26 Nordeste 0 -- -- 47
2018-09-21 18:00:00 24.4 12 Nordeste 27 Sur 0 -- -- 34
2018-09-21 17:00:00 25.7 6 Oeste 17 Oeste 0 -- -- 25
2018-09-21 16:00:00 25.3 2 Noroeste 14 Sur 0 -- -- 32
2018-09-21 15:00:00 23.9 2 Nordeste 15 Norte 0 -- -- 37
2018-09-21 14:00:00 22.4 8 Este 23 Este 0 -- -- 41
2018-09-21 13:00:00 22.3 10 Nordeste 19 Este 0 -- -- 41
2018-09-21 12:00:00 22.3 5 Nordeste 16 Norte 0 -- -- 42
2018-09-21 11:00:00 20.4 4 Nordeste 12 Este 0 -- -- 49
2018-09-21 10:00:00 17.6 6 Norte 14 Norte 0 -- -- 58
2018-09-21 09:00:00 15.3 4 Sudeste 7 Sur 0 -- -- 66
2018-09-21 08:00:00 14.1 6 Norte 9 Norte 0 -- -- 66
2018-09-21 07:00:00 13.6 2 Sudoeste 10 Sur 0 -- -- 69
2018-09-21 06:00:00 14.7 2 Sudoeste 14 Oeste 0 -- -- 63
2018-09-21 05:00:00 14.5 3 Sudoeste 9 Oeste 0 -- -- 65
2018-09-21 04:00:00 15 3 Sur 7 Oeste 0 -- -- 65
2018-09-21 03:00:00 15.1 4 Sudoeste 10 Oeste 0 -- -- 64
2018-09-21 02:00:00 15.1 5 Sur 12 Este 0 -- -- 66
2018-09-21 01:00:00 17.2 11 Este 22 Este 0 -- -- 56
2018-09-21 00:00:00 19.5 5 Sudoeste 12 Sur 0 -- -- 49
2018-09-20 23:00:00 19.3 4 Sudoeste 10 Oeste 0 -- -- 51
2018-09-20 22:00:00 18.2 6 Sur 12 Oeste 0 -- -- 55
2018-09-20 21:00:00 19 5 Sudoeste 13 Sudoeste 0 -- -- 52
2018-09-20 20:00:00 22.1 6 Sudoeste 15 Oeste 0 -- -- 40
2018-09-20 19:00:00 28.5 8 Oeste 22 Oeste 0 -- -- 23
2018-09-20 18:00:00 28.8 8 Oeste 24 Sur 0 -- -- 23
2018-09-20 17:00:00 29.2 13 Oeste 28 Oeste 0 -- -- 24
2018-09-20 16:00:00 28.9 7 Sudoeste 27 Oeste 0 -- -- 27
2018-09-20 15:00:00 27.3 7 Este 19 Norte 0 -- -- 41
2018-09-20 14:00:00 24.4 9 Este 18 Este 0 -- -- 48
2018-09-20 13:00:00 21.7 2 Norte 10 Norte 0 -- -- 59
2018-09-20 12:00:00 18.8 2 Este 7 Este -- -- -- 76
2018-09-20 11:00:00 14.9 0 Calma -- -- -- -- -- 95
2018-09-20 10:00:00 -- -- -- -- -- -- -- -- --
2018-09-20 09:00:00 -- -- -- -- -- -- -- -- --
2018-09-20 08:00:00 -- -- -- -- -- -- -- -- --
2018-09-20 07:00:00 -- -- -- -- -- -- -- -- --
2018-09-20 06:00:00 -- -- -- -- -- -- -- -- --
2018-09-20 05:00:00 -- -- -- -- -- -- -- -- --
2018-09-20 04:00:00 -- -- -- -- -- -- -- -- --
2018-09-20 03:00:00 -- -- -- -- -- -- -- -- --
2018-09-20 02:00:00 -- -- -- -- -- -- -- -- --
2018-09-20 01:00:00 -- -- -- -- -- -- -- -- --
2018-09-20 00:00:00 -- -- -- -- -- -- -- -- --
2018-09-19 23:00:00 -- -- -- -- -- -- -- -- --
2018-09-19 22:00:00 -- -- -- -- -- -- -- -- --
2018-09-19 21:00:00 -- -- -- -- -- -- -- -- --
2018-09-19 20:00:00 -- -- -- -- -- -- -- -- --
2018-09-19 19:00:00 -- 0 Calma -- -- 0 -- -- --
2018-09-19 18:00:00 -- 0 Calma -- -- 0 -- -- --
2018-09-19 17:00:00 -- 0 Calma -- -- 0 -- -- --
2018-09-19 16:00:00 -- 0 Calma -- -- 0 -- -- --
2018-09-19 15:00:00 -- 0 Calma -- -- 0 -- -- --
2018-09-19 14:00:00 -- 0 Calma -- -- 0 -- -- --
2018-09-19 13:00:00 -- 0 Calma -- -- 0 -- -- --
2018-09-19 12:00:00 -- 0 Calma -- -- 0 -- -- --
2018-09-19 11:00:00 -- 0 Calma -- -- 0 -- -- --
2018-09-19 10:00:00 -- 0 Calma -- -- 0 -- -- --
2018-09-19 09:00:00 -- 0 Calma -- -- 0 -- -- --
2018-09-19 08:00:00 -- 0 Calma -- -- 0 -- -- --
2018-09-19 07:00:00 -- 0 Calma -- -- 0 -- -- --
2018-09-19 06:00:00 -- 0 Calma -- -- 0 -- -- --
2018-09-19 05:00:00 -- 0 Calma -- -- 0 -- -- --
2018-09-19 04:00:00 -- 0 Calma -- -- 0 -- -- --
2018-09-19 03:00:00 -- 0 Calma -- -- 0 -- -- --
2018-09-19 02:00:00 -- 0 Calma -- -- 0 -- -- --
2018-09-19 01:00:00 -- 0 Calma -- -- 0 -- -- --
2018-09-19 00:00:00 -- 0 Calma -- -- 0 -- -- --
2018-09-18 23:00:00 -- 0 Calma -- -- 0 -- -- --
2018-09-18 22:00:00 -- 0 Calma -- -- 0 -- -- --
2018-09-18 21:00:00 -- 0 Calma -- -- 0 -- -- --
2018-09-18 20:00:00 -- 0 Calma -- -- 0 -- -- --
2018-09-18 19:00:00 -- 0 Calma -- -- 0 -- -- --
2018-09-18 18:00:00 -- 0 Calma -- -- 0 -- -- --
2018-09-18 17:00:00 -- 0 Calma -- -- 0 -- -- --
2018-09-18 16:00:00 -- 0 Calma -- -- 0 -- -- --
2018-09-18 15:00:00 -- 0 Calma -- -- 0 -- -- --
2018-09-18 14:00:00 -- 0 Calma -- -- 0 -- -- --
2018-09-18 13:00:00 -- 0 Calma -- -- 0 -- -- --
2018-09-18 12:00:00 -- 0 Calma -- -- 0 -- -- --
2018-09-18 11:00:00 -- 0 Calma -- -- 0 -- -- --
2018-09-18 10:00:00 -- 0 Calma -- -- 0 -- -- --
2018-09-18 09:00:00 -- 0 Calma -- -- 0 -- -- --
2018-09-18 08:00:00 -- 0 Calma -- -- 0 -- -- --
2018-09-18 07:00:00 -- 0 Calma -- -- 0 -- -- --
2018-09-18 06:00:00 -- 0 Calma -- -- 0 -- -- --
2018-09-18 05:00:00 -- 0 Calma -- -- 0 -- -- --
2018-09-18 04:00:00 -- 0 Calma -- -- 0 -- -- --
2018-09-18 03:00:00 -- 0 Calma -- -- 0 -- -- --
2018-09-18 02:00:00 -- 0 Calma -- -- 0 -- -- --
2018-09-18 01:00:00 -- 0 Calma -- -- 0 -- -- --
2018-09-18 00:00:00 -- 0 Calma -- -- 0 -- -- --
2018-09-17 23:00:00 -- 0 Calma -- -- 0 -- -- --
2018-09-17 22:00:00 -- 0 Calma -- -- 0 -- -- --
2018-09-17 21:00:00 -- 0 Calma -- -- 0 -- -- --
2018-09-17 20:00:00 -- 0 Calma -- -- 0 -- -- --
2018-09-17 19:00:00 -- 0 Calma -- -- 0 -- -- --
2018-09-17 18:00:00 -- 0 Calma -- -- 0 -- -- --
2018-09-17 17:00:00 -- 0 Calma -- -- 0 -- -- --
2018-09-17 16:00:00 -- 0 Calma -- -- 0 -- -- --
2018-09-17 15:00:00 -- 0 Calma -- -- 0 -- -- --
2018-09-17 14:00:00 -- 0 Calma -- -- 0 -- -- --
2018-09-17 13:00:00 -- 0 Calma -- -- 0 -- -- --
2018-09-17 12:00:00 -- 0 Calma -- -- 0 -- -- --
2018-09-17 11:00:00 -- 0 Calma -- -- 0 -- -- --
2018-09-17 10:00:00 -- 0 Calma -- -- 0 -- -- --
2018-09-17 09:00:00 -- 0 Calma -- -- 0 -- -- --
2018-09-17 08:00:00 -- 0 Calma -- -- 0 -- -- --
2018-09-17 07:00:00 -- 0 Calma -- -- 0 -- -- --
2018-09-17 06:00:00 -- 0 Calma -- -- 0 -- -- --
2018-09-17 05:00:00 -- 0 Calma -- -- 0 -- -- --
2018-09-17 04:00:00 -- 0 Calma -- -- 0 -- -- --
2018-09-17 03:00:00 -- 0 Calma -- -- 0.3 -- -- --
2018-09-17 02:00:00 -- 0 Calma -- -- 0.2 -- -- --
2018-09-17 01:00:00 21.1 -- -- -- -- 3.9 -- -- 66
2018-09-17 00:00:00 -- 15 Este 25 Este 0 -- -- --
2018-09-16 23:00:00 -- 14 Este 23 Este 0 -- -- --
2018-09-16 22:00:00 -- 8 Este 18 Norte 0 -- -- --
2018-09-16 21:00:00 -- 7 Norte 15 Norte 0 -- -- --
2018-09-16 20:00:00 -- 2 Oeste 12 Norte 0 -- -- --
2018-09-16 19:00:00 -- 0 Calma 9 Este 0 -- -- --
2018-09-16 18:00:00 -- 0 Calma 6 Oeste 0 -- -- --
2018-09-16 17:00:00 -- 2 Sudoeste 7 Oeste 0 -- -- --
2018-09-16 16:00:00 -- 0 Calma 8 Sur 0 -- -- --
2018-09-16 15:00:00 -- 0 Calma 7 Oeste 0 -- -- --
2018-09-16 14:00:00 -- 2 Sudoeste 6 Oeste 0 -- -- --
2018-09-16 13:00:00 -- 0 Calma 6 Sur 0 -- -- --
2018-09-16 12:00:00 -- 2 Sudoeste 6 Oeste 0 -- -- --
2018-09-16 11:00:00 -- 0 Calma 6 Oeste 0 -- -- --
2018-09-16 10:00:00 -- 3 Sur 6 Sur 0 -- -- --
2018-09-16 09:00:00 -- 0 Calma 6 Oeste 0 -- -- --
2018-09-16 08:00:00 -- 2 Sur 7 Este 0 -- -- --
2018-09-16 07:00:00 -- 6 Este 8 Este 0 -- -- --
2018-09-16 06:00:00 -- 4 Este 18 Este 0 -- -- --
2018-09-16 05:00:00 -- 11 Este 19 Este 0 -- -- --
2018-09-16 04:00:00 -- 10 Este 18 Este 0 -- -- --
2018-09-16 03:00:00 -- 13 Este 19 Este 0 -- -- --
2018-09-16 02:00:00 -- 13 Este 25 Este 0 -- -- --
2018-09-16 01:00:00 -- 10 Este 24 Este 0 -- -- --
2018-09-16 00:00:00 -- 12 Este 21 Este 0 -- -- --
2018-09-15 23:00:00 -- 8 Este 20 Norte 0 -- -- --
2018-09-15 22:00:00 -- 5 Nordeste 17 Norte 0 -- -- --
2018-09-15 21:00:00 -- 8 Norte 13 Norte 0 -- -- --
2018-09-15 20:00:00 -- 6 Este 12 Este 0 -- -- --
2018-09-15 19:00:00 -- 3 Norte 10 Norte 0 -- -- --
2018-09-15 18:00:00 -- 0 Calma 4 Oeste 0 -- -- --
2018-09-15 17:00:00 -- 0 Calma 7 Oeste 0 -- -- --
2018-09-15 16:00:00 -- 2 Sudoeste 9 Oeste 0 -- -- --
2018-09-15 15:00:00 -- 0 Calma 9 Sur 0 -- -- --
2018-09-15 14:00:00 -- 4 Sudoeste 9 Sur 0 -- -- --
2018-09-15 13:00:00 -- 0 Calma 9 Sur 0 -- -- --
2018-09-15 12:00:00 -- 3 Sudoeste 8 Sur 0 -- -- --
2018-09-15 11:00:00 -- 2 Sudoeste 9 Sur 0 -- -- --
2018-09-15 10:00:00 -- 4 Sudoeste 9 Sur 0 -- -- --
2018-09-15 09:00:00 -- 3 Sudoeste 11 Oeste 0 -- -- --
2018-09-15 08:00:00 -- 2 Sudoeste 10 Oeste 0 -- -- --
2018-09-15 07:00:00 -- 5 Sudoeste 10 Oeste 0 -- -- --
2018-09-15 06:00:00 -- 4 Este 10 Este 0 -- -- --
2018-09-15 05:00:00 -- 4 Este 18 Este 0 -- -- --
2018-09-15 04:00:00 -- 14 Este 25 Este 0 -- -- --
2018-09-15 03:00:00 -- 14 Este 23 Este 0 -- -- --
2018-09-15 02:00:00 -- 15 Este 23 Este 0 -- -- --
2018-09-15 01:00:00 -- 12 Este 35 Este 0 -- -- --
2018-09-15 00:00:00 -- 11 Este 20 Este 0 -- -- --
2018-09-14 23:00:00 -- 9 Este 19 Este 0 -- -- --
2018-09-14 22:00:00 -- 9 Este 18 Este 0 -- -- --
2018-09-14 21:00:00 -- 8 Este 18 Este 0 -- -- --
2018-09-14 20:00:00 -- 6 Este 14 Este 0 -- -- --
2018-09-14 19:00:00 -- 5 Norte 12 Este 0 -- -- --
2018-09-14 18:00:00 -- 2 Este 12 Este 0 -- -- --
2018-09-14 17:00:00 -- 3 Este 9 Este 0 -- -- --
2018-09-14 16:00:00 -- 6 Norte 12 Norte 0 -- -- --
2018-09-14 15:00:00 -- 5 Este 10 Este 0 -- -- --
2018-09-14 14:00:00 -- 6 Nordeste 14 Este 0 -- -- --
2018-09-14 13:00:00 -- 9 Este 15 Este 0 -- -- --
2018-09-14 12:00:00 -- 9 Este 15 Este 0 -- -- --
2018-09-14 11:00:00 -- 5 Este 13 Este 0 -- -- --
2018-09-14 10:00:00 -- 8 Nordeste 15 Este 0 -- -- --
2018-09-14 09:00:00 -- 10 Este 18 Este 0 -- -- --
2018-09-14 08:00:00 -- 12 Este 20 Este 0 -- -- --
2018-09-14 07:00:00 -- 14 Este 21 Este 0 -- -- --
2018-09-14 06:00:00 -- 10 Este 20 Este 0 -- -- --
2018-09-14 05:00:00 -- 9 Nordeste 21 Este 0 -- -- --
2018-09-14 04:00:00 -- 14 Nordeste 24 Norte 0 -- -- --
2018-09-14 03:00:00 -- 12 Nordeste 22 Norte 0 -- -- --
2018-09-14 02:00:00 -- 9 Este 21 Este 0 -- -- --
2018-09-14 01:00:00 -- 6 Este 19 Este 0 -- -- --
2018-09-14 00:00:00 -- 7 Este 19 Este 0 -- -- --
2018-09-13 23:00:00 -- 8 Norte 20 Norte 0 -- -- --
2018-09-13 22:00:00 -- 6 Norte 16 Este 0 -- -- --
2018-09-13 21:00:00 -- 6 Nordeste 15 Norte 0 -- -- --
2018-09-13 20:00:00 -- 5 Este 12 Este 0 -- -- --
2018-09-13 19:00:00 -- 0 Calma 9 Este 0 -- -- --
2018-09-13 18:00:00 -- 3 Sudeste 13 Este 0 -- -- --
2018-09-13 17:00:00 -- 3 Este 6 Este 0 -- -- --
2018-09-13 16:00:00 -- 4 Este 10 Este 0 -- -- --
2018-09-13 15:00:00 -- 2 Este 6 Este 0 -- -- --
2018-09-13 14:00:00 -- 2 Este 6 Este 0 -- -- --
2018-09-13 13:00:00 -- 4 Este 8 Este 0 -- -- --
2018-09-13 12:00:00 -- 0 Calma 6 Este 0 -- -- --
2018-09-13 11:00:00 -- 5 Este 8 Este 0 -- -- --
2018-09-13 10:00:00 -- 5 Este 8 Este 0 -- -- --
2018-09-13 09:00:00 -- 6 Este 9 Este 0 -- -- --
2018-09-13 08:00:00 -- 6 Este 10 Este 0 -- -- --
2018-09-13 07:00:00 -- 7 Este 12 Este 0 -- -- --
2018-09-13 06:00:00 -- 9 Este 13 Este 0 -- -- --
2018-09-13 05:00:00 -- 10 Este 17 Este 0 -- -- --
2018-09-13 04:00:00 -- 10 Nordeste 22 Este 0 -- -- --
2018-09-13 03:00:00 -- 11 Este 20 Este 0 -- -- --
2018-09-13 02:00:00 -- 10 Este 25 Sur 0 -- -- --
2018-09-13 01:00:00 -- 8 Nordeste 21 Norte 0 -- -- --
2018-09-13 00:00:00 -- 5 Norte 18 Norte 0 -- -- --
2018-09-12 23:00:00 -- 3 Este 17 Este 0 -- -- --
2018-09-12 22:00:00 -- 6 Nordeste 17 Norte 0 -- -- --
2018-09-12 21:00:00 -- 9 Nordeste 19 Este 0 -- -- --
2018-09-12 20:00:00 -- 7 Este 16 Este 0 -- -- --
2018-09-12 19:00:00 -- 9 Este 14 Este 0 -- -- --
2018-09-12 18:00:00 -- 8 Este 13 Norte 0 -- -- --
2018-09-12 17:00:00 -- 6 Este 12 Este 0 -- -- --
2018-09-12 16:00:00 -- 5 Nordeste 9 Este 0 -- -- --
2018-09-12 15:00:00 -- 4 Este 10 Norte 0 -- -- --
2018-09-12 14:00:00 -- 3 Este 9 Este 0 -- -- --
2018-09-12 13:00:00 -- 3 Este 8 Este 0 -- -- --
2018-09-12 12:00:00 -- 6 Este 13 Este 0 -- -- --
2018-09-12 11:00:00 -- 8 Este 15 Este 0 -- -- --
2018-09-12 10:00:00 -- 8 Este 15 Este 0 -- -- --
2018-09-12 09:00:00 -- 10 Este 15 Este 0 -- -- --
2018-09-12 08:00:00 -- 7 Nordeste 13 Este 0 -- -- --
2018-09-12 07:00:00 -- 9 Nordeste 19 Nordeste 0 -- -- --
2018-09-12 06:00:00 -- 12 Este 23 Este 0 -- -- --
2018-09-12 05:00:00 -- 14 Este 29 Norte 0 -- -- --
2018-09-12 04:00:00 -- 10 Nordeste 25 Norte 0 -- -- --
2018-09-12 03:00:00 -- 10 Este 20 Este 0 -- -- --
2018-09-12 02:00:00 -- 13 Este 20 Este 0 -- -- --
2018-09-12 01:00:00 -- 8 Este 21 Este 0 -- -- --
2018-09-12 00:00:00 -- 9 Norte 16 Norte 0 -- -- --
2018-09-11 23:00:00 -- 3 Este 13 Norte 0 -- -- --
2018-09-11 22:00:00 -- 3 Norte 13 Norte 0 -- -- --
2018-09-11 21:00:00 -- 8 Norte 14 Norte 0 -- -- --
2018-09-11 20:00:00 -- 6 Este 12 Norte 0 -- -- --
2018-09-11 19:00:00 -- 6 Norte 8 Norte 0 -- -- --
2018-09-11 18:00:00 -- 0 Calma 6 Sur 0 -- -- --
2018-09-11 17:00:00 -- 2 Sur 6 Oeste 0 -- -- --
2018-09-11 16:00:00 -- 3 Sur 8 Sur 0 -- -- --
2018-09-11 15:00:00 -- 0 Calma 6 Sur 0 -- -- --
2018-09-11 14:00:00 -- 2 Sur 9 Sur 0 -- -- --
2018-09-11 13:00:00 -- 0 Calma 8 Oeste 0 -- -- --
2018-09-11 12:00:00 -- 3 Sur 9 Sur 0 -- -- --
2018-09-11 11:00:00 -- 3 Sudoeste 14 Oeste 0 -- -- --
2018-09-11 10:00:00 -- 2 Sur 10 Sur 0 -- -- --
2018-09-11 09:00:00 -- 2 Sudoeste 9 Sur 0 -- -- --
2018-09-11 08:00:00 -- 3 Sudoeste 12 Sur 0 -- -- --
2018-09-11 07:00:00 -- 3 Sur 10 Oeste 0 -- -- --
2018-09-11 06:00:00 -- 4 Sudoeste 10 Sur 0 -- -- --
2018-09-11 05:00:00 -- 2 Noroeste 8 Sur 0 -- -- --
2018-09-11 04:00:00 -- 4 Oeste 15 Sur 0 -- -- --
2018-09-11 03:00:00 -- 5 Sudoeste 26 Sur 0 -- -- --
2018-09-11 02:00:00 -- 16 Este 28 Este 0 -- -- --
2018-09-11 01:00:00 -- 14 Este 28 Este 0 -- -- --
2018-09-11 00:00:00 -- 13 Este 25 Este 0 -- -- --
2018-09-10 23:00:00 -- 12 Este 22 Este 0 -- -- --
2018-09-10 22:00:00 -- 10 Este 20 Este 0 -- -- --
2018-09-10 21:00:00 -- 8 Norte 14 Norte 0 -- -- --
2018-09-10 20:00:00 -- 8 Este 13 Este 0 -- -- --
2018-09-10 19:00:00 -- 0 Calma 5 Norte 0 -- -- --
2018-09-10 18:00:00 -- 0 Calma 9 Oeste 0 -- -- --
2018-09-10 17:00:00 -- 3 Sudoeste 9 Sur 0 -- -- --
2018-09-10 16:00:00 -- 0 Calma 9 Sur 0 -- -- --
2018-09-10 15:00:00 -- 2 Sudoeste 8 Sur 0 -- -- --
2018-09-10 14:00:00 -- 2 Sudoeste 7 Oeste 0 -- -- --
2018-09-10 13:00:00 -- 3 Sudoeste 7 Oeste 0 -- -- --
2018-09-10 12:00:00 -- 0 Calma 9 Sur 0 -- -- --
2018-09-10 11:00:00 -- 3 Sudoeste 9 Sur 0 -- -- --
2018-09-10 10:00:00 -- 4 Sudoeste 7 Sur 0 -- -- --
2018-09-10 09:00:00 -- 4 Sur 7 Sur 0 -- -- --
2018-09-10 08:00:00 -- 0 Calma 10 Este 0 -- -- --
2018-09-10 07:00:00 -- 7 Este 10 Este 0 -- -- --
2018-09-10 06:00:00 -- 6 Este 8 Este 0 -- -- --
2018-09-10 05:00:00 -- 7 Nordeste 12 Este 0 -- -- --
2018-09-10 04:00:00 -- 9 Este 20 Este 0 -- -- --
2018-09-10 03:00:00 -- 10 Nordeste 22 Este 0 -- -- --
2018-09-10 02:00:00 -- 10 Este 21 Este 0 -- -- --
2018-09-10 01:00:00 -- 6 Nordeste 18 Norte 0 -- -- --
2018-09-10 00:00:00 -- 6 Norte 20 Este 0 -- -- --
2018-09-09 23:00:00 -- 6 Nordeste 20 Norte 0 -- -- --
2018-09-09 22:00:00 -- 6 Norte 16 Norte 0 -- -- --
2018-09-09 21:00:00 -- 6 Nordeste 17 Norte 0 -- -- --
2018-09-09 20:00:00 -- 8 Este 15 Este 0 -- -- --
2018-09-09 19:00:00 -- 9 Este 13 Este 0 -- -- --
2018-09-09 18:00:00 -- 6 Nordeste 9 Este 0 -- -- --
2018-09-09 17:00:00 -- 4 Nordeste -- -- -- -- -- --
2018-09-09 16:00:00 -- -- -- -- -- -- -- -- --
2018-09-09 15:00:00 -- 0 Calma -- -- 0.2 -- -- --
2018-09-09 14:00:00 -- -- -- -- -- 0 -- -- --
2018-09-09 13:00:00 -- 0 Calma -- -- 0 -- -- --
2018-09-09 12:00:00 -- 0 Calma -- -- 0 -- -- --
2018-09-09 11:00:00 -- 0 Calma -- -- 0 -- -- --
2018-09-09 10:00:00 -- 0 Calma -- -- 0 -- -- --
2018-09-09 09:00:00 -- -- -- -- -- -- -- -- --
2018-09-09 08:00:00 -- -- -- -- -- -- -- -- --
2018-09-09 07:00:00 -- -- -- -- -- -- -- -- --
2018-09-09 06:00:00 -- -- -- -- -- -- -- -- --
2018-09-09 05:00:00 -- -- -- -- -- -- -- -- --
2018-09-09 04:00:00 -- -- -- -- -- -- -- -- --
2018-09-09 03:00:00 -- -- -- -- -- -- -- -- --
2018-09-09 02:00:00 -- -- -- -- -- -- -- -- --
2018-09-09 01:00:00 -- -- -- -- -- -- -- -- --
2018-09-09 00:00:00 -- -- -- -- -- -- -- -- --
2018-09-08 23:00:00 -- -- -- -- -- -- -- -- --
2018-09-08 22:00:00 -- -- -- -- -- -- -- -- --
2018-09-08 21:00:00 -- -- -- -- -- -- -- -- --
2018-09-08 20:00:00 -- -- -- -- -- -- -- -- --
2018-09-08 19:00:00 -- -- -- -- -- -- -- -- --
2018-09-08 18:00:00 -- -- -- -- -- -- -- -- --
2018-09-08 17:00:00 -- -- -- -- -- -- -- -- --
2018-09-08 16:00:00 20.3 10 Este 29 Este 0.2 -- -- 65
2018-09-08 15:00:00 23.9 18 Este 30 Este 0 -- -- 44
2018-09-08 14:00:00 22.9 13 Este 19 Este 0 -- -- 48
2018-09-08 13:00:00 21 9 Este 16 Este 0 -- -- 57
2018-09-08 12:00:00 18.5 7 Este 17 Este 0 -- -- 69
2018-09-08 11:00:00 16.1 4 Este 12 Este 0 -- -- 84
2018-09-08 10:00:00 14.5 6 Este 10 Este 0 -- -- 90
2018-09-08 09:00:00 11.9 0 Calma 6 Oeste 0 -- -- 96
2018-09-08 08:00:00 10.7 2 Sur 4 Sur 0 -- -- 96
2018-09-08 07:00:00 11.9 3 Este 7 Oeste 0 -- -- 96
2018-09-08 06:00:00 12.6 0 Calma 6 Sur 0 -- -- 97
2018-09-08 05:00:00 11.4 0 Calma 5 Sur 0 -- -- 96
2018-09-08 04:00:00 10.8 0 Calma 4 Sur 0 -- -- 95
2018-09-08 03:00:00 11.2 0 Calma 6 Oeste 0 -- -- 94
2018-09-08 02:00:00 11.5 0 Calma 6 Sur 0 -- -- 94
2018-09-08 01:00:00 12.5 0 Calma 9 Este 0 -- -- 94
2018-09-08 00:00:00 12.9 7 Este 13 Nordeste 0 -- -- 92
2018-09-07 23:00:00 13.6 6 Este 12 Este 0 -- -- 89
2018-09-07 22:00:00 14.4 6 Este 14 Este 0 -- -- 83
2018-09-07 21:00:00 15.7 6 Nordeste 20 Este 0 -- -- 72
2018-09-07 20:00:00 17.8 10 Nordeste 22 Norte 0 -- -- 57
2018-09-07 19:00:00 19.3 12 Nordeste 24 Este 0 -- -- 52
2018-09-07 18:00:00 19.7 14 Este 28 Este 0 -- -- 52
2018-09-07 17:00:00 20.3 14 Este 30 Este 0 -- -- 50
2018-09-07 16:00:00 20.5 13 Este 26 Este 0 -- -- 51
2018-09-07 15:00:00 19 11 Nordeste 23 Este 0 -- -- 55
2018-09-07 14:00:00 18.6 11 Nordeste 25 Norte 0 -- -- 61
2018-09-07 13:00:00 16.7 10 Nordeste 22 Norte 0 -- -- 72
2018-09-07 12:00:00 15.8 11 Nordeste 19 Norte 0 -- -- 76
2018-09-07 11:00:00 15 9 Este 13 Este 0 -- -- 85
2018-09-07 10:00:00 14.1 6 Este 13 Este 0 -- -- 88
2018-09-07 09:00:00 13 5 Este 7 Este 0 -- -- 94
2018-09-07 08:00:00 12 4 Este 6 Este 0 -- -- 96
2018-09-07 07:00:00 12.8 4 Este 6 Este 0 -- -- 96
2018-09-07 06:00:00 12.3 4 Este 6 Este 0 -- -- 94
2018-09-07 05:00:00 13.1 3 Este 7 Este 0 -- -- 94
2018-09-07 04:00:00 13.2 4 Este 12 Este 0 -- -- 94
2018-09-07 03:00:00 13.1 5 Este 13 Este 0 -- -- 95
2018-09-07 02:00:00 13.6 7 Este 12 Este 0 -- -- 97
2018-09-07 01:00:00 13.6 8 Este 14 Este 0.8 -- -- 97
2018-09-07 00:00:00 14.3 6 Este 11 Este 0 -- -- 87
2018-09-06 23:00:00 14.3 7 Este 13 Este 0 -- -- 85
2018-09-06 22:00:00 14.6 8 Este 17 Este 0 -- -- 80
2018-09-06 21:00:00 15.1 10 Nordeste 19 Este 0 -- -- 77
2018-09-06 20:00:00 16.3 10 Nordeste 25 Este 0 -- -- 69
2018-09-06 19:00:00 17.1 12 Nordeste 22 Este 0 -- -- 69
2018-09-06 18:00:00 19.4 12 Norte 26 Norte 0 -- -- 59
2018-09-06 17:00:00 19 16 Norte 24 Norte 0 -- -- 54
2018-09-06 16:00:00 19.8 5 Este 19 Norte 0 -- -- 55
2018-09-06 15:00:00 17.5 15 Norte 23 Norte 0 -- -- 65
2018-09-06 14:00:00 18.5 9 Nordeste 18 Norte 0 -- -- 62
2018-09-06 13:00:00 16.7 7 Este 15 Este 0 -- -- 70
2018-09-06 12:00:00 16.8 7 Este 14 Este 0 -- -- 73
2018-09-06 11:00:00 16.1 3 Norte 13 Este 0 -- -- 77
2018-09-06 10:00:00 15 5 Este 10 Este 0 -- -- 83
2018-09-06 09:00:00 14.1 3 Este 6 Este 0 -- -- 90
2018-09-06 08:00:00 13.6 4 Este 8 Este 0 -- -- 93
2018-09-06 07:00:00 13.7 4 Este 8 Este 0 -- -- 94
2018-09-06 06:00:00 14 5 Este 8 Este 0 -- -- 95
2018-09-06 05:00:00 14 4 Este 9 Este 0 -- -- 96
2018-09-06 04:00:00 14 6 Este 8 Este 0 -- -- 97
2018-09-06 03:00:00 14 5 Este 13 Este 0 -- -- 97
2018-09-06 02:00:00 14.1 8 Este 13 Este 0 -- -- 96
2018-09-06 01:00:00 14.2 8 Este 13 Este 0 -- -- 97
2018-09-06 00:00:00 14.3 8 Este 13 Este 0 -- -- 98
2018-09-05 23:00:00 14.6 7 Este 11 Este 0 -- -- 97
2018-09-05 22:00:00 13.9 3 Nordeste 21 Sur 0 -- -- 91
2018-09-05 21:00:00 14.3 5 Nordeste 23 Este 0 -- -- 83
2018-09-05 20:00:00 15.9 13 Este 22 Este 0.2 -- -- 73
2018-09-05 19:00:00 18 10 Este 17 Este 0 -- -- 77
2018-09-05 18:00:00 17.5 12 Este 21 Este 0 -- -- 79
2018-09-05 17:00:00 18.3 10 Este 18 Norte 0 -- -- 80
2018-09-05 16:00:00 17.7 8 Nordeste 14 Norte 2.4 -- -- 87
2018-09-05 15:00:00 15.8 6 Nordeste 19 Este 28.8 -- -- 94
2018-09-05 14:00:00 16.3 10 Este 19 Este 0 -- -- 80
2018-09-05 13:00:00 16.8 4 Nordeste 17 Este 0 -- -- 80
2018-09-05 12:00:00 14.7 9 Nordeste 14 Norte 0 -- -- 91
2018-09-05 11:00:00 14.3 6 Norte 14 Este 0 -- -- 95
2018-09-05 10:00:00 14.1 5 Nordeste 14 Norte 0 -- -- 95
2018-09-05 09:00:00 13.9 6 Nordeste 12 Este 0 -- -- 95
2018-09-05 08:00:00 13.7 6 Nordeste 13 Norte 0 -- -- 95
2018-09-05 07:00:00 13.9 5 Este 8 Nordeste 0 -- -- 95
2018-09-05 06:00:00 13.7 5 Nordeste 10 Norte 0 -- -- 95
2018-09-05 05:00:00 13.8 5 Nordeste 12 Norte 0 -- -- 94
2018-09-05 04:00:00 13.9 4 Este 8 Este 0 -- -- 94
2018-09-05 03:00:00 13.7 5 Este 10 Este 0 -- -- 94
2018-09-05 02:00:00 12.8 5 Este 13 Este 0 -- -- 94
2018-09-05 01:00:00 12.9 8 Este 9 Este 0 -- -- 91
2018-09-05 00:00:00 13.7 7 Norte 17 Este 0 -- -- 85
2018-09-04 23:00:00 15.8 9 Nordeste 19 Este 0 -- -- 79
2018-09-04 22:00:00 16.1 10 Nordeste 18 Este 0 -- -- 81
2018-09-04 21:00:00 17.1 10 Norte 20 Este 0 -- -- 77
2018-09-04 20:00:00 18.3 11 Nordeste 24 Este 0 -- -- 69
2018-09-04 19:00:00 19.9 13 Nordeste 24 Norte 0 -- -- 62
2018-09-04 18:00:00 22.2 15 Nordeste 27 Norte 0 -- -- 55
2018-09-04 17:00:00 23.2 12 Norte 27 Este 0 -- -- 52
2018-09-04 16:00:00 23.3 12 Norte 24 Norte 0 -- -- 52
2018-09-04 15:00:00 21.8 10 Norte 26 Norte 0 -- -- 56
2018-09-04 14:00:00 21 9 Nordeste 22 Norte 0 -- -- 58
2018-09-04 13:00:00 18.7 8 Norte 19 Norte 0 -- -- 67
2018-09-04 12:00:00 -- -- -- 17 Este 0 -- -- --
2018-09-04 11:00:00 -- -- -- 15 Este 0 -- -- --
2018-09-04 10:00:00 -- -- -- 10 Este 0 -- -- --
2018-09-04 09:00:00 -- -- -- 5 Sur 0 -- -- --
2018-09-04 08:00:00 -- -- -- 6 Sur 0 -- -- --
2018-09-04 07:00:00 -- -- -- 7 Este 0 -- -- --
2018-09-04 06:00:00 -- -- -- 11 Este 0 -- -- --
2018-09-04 05:00:00 -- -- -- 10 Este 0 -- -- --
2018-09-04 04:00:00 -- -- -- 11 Este 0 -- -- --
2018-09-04 03:00:00 -- -- -- 11 Este 0 -- -- --
2018-09-04 02:00:00 -- -- -- 25 Sur 0.4 -- -- --
2018-09-04 01:00:00 -- -- -- 13 Oeste 0 -- -- --
2018-09-04 00:00:00 -- -- -- 33 Este 4 -- -- --
2018-09-03 23:00:00 -- -- -- 26 Este 1 -- -- --
2018-09-03 22:00:00 -- -- -- 18 Norte 0 -- -- --
2018-09-03 21:00:00 -- -- -- 24 Norte 0 -- -- --
2018-09-03 20:00:00 -- -- -- 29 Este 0 -- -- --
2018-09-03 19:00:00 -- -- -- 29 Norte 0 -- -- --
2018-09-03 18:00:00 -- -- -- 25 Este 0 -- -- --
2018-09-03 17:00:00 -- -- -- 28 Este 0 -- -- --
2018-09-03 16:00:00 -- -- -- 31 Este 0 -- -- --
2018-09-03 15:00:00 -- -- -- 29 Este 0 -- -- --
2018-09-03 14:00:00 -- -- -- 28 Este 0 -- -- --
2018-09-03 13:00:00 -- -- -- 23 Norte 0 -- -- --
2018-09-03 12:00:00 -- -- -- 18 Norte 0 -- -- --
2018-09-03 11:00:00 -- -- -- 18 Este 0 -- -- --
2018-09-03 10:00:00 -- -- -- 13 Norte 0 -- -- --
2018-09-03 09:00:00 -- -- -- 10 Este 0 -- -- --
2018-09-03 08:00:00 -- -- -- 8 Sur 0 -- -- --
2018-09-03 07:00:00 -- -- -- 9 Sur 0 -- -- --
2018-09-03 06:00:00 -- -- -- 8 Sur 0 -- -- --
2018-09-03 05:00:00 -- -- -- 9 Oeste 0 -- -- --
2018-09-03 04:00:00 -- -- -- 11 Oeste 0 -- -- --
2018-09-03 03:00:00 -- -- -- 8 Oeste 0 -- -- --
2018-09-03 02:00:00 -- -- -- 10 Oeste 0 -- -- --
2018-09-03 01:00:00 -- -- -- 9 Sur 0 -- -- --
2018-09-03 00:00:00 -- -- -- 10 Este 0 -- -- --
2018-09-02 23:00:00 -- -- -- 11 Este 0 -- -- --
2018-09-02 22:00:00 -- -- -- 13 Este 0 -- -- --
2018-09-02 21:00:00 -- -- -- 17 Este 0 -- -- --
2018-09-02 20:00:00 -- -- -- 19 Este 0 -- -- --
2018-09-02 19:00:00 -- -- -- 22 Este 0 -- -- --
2018-09-02 18:00:00 -- -- -- 25 Este 0 -- -- --
2018-09-02 17:00:00 -- -- -- 22 Este 0 -- -- --
2018-09-02 16:00:00 -- -- -- 22 Este 0 -- -- --
2018-09-02 15:00:00 -- -- -- 21 Este 0 -- -- --
2018-09-02 14:00:00 -- -- -- 15 Norte 0 -- -- --
2018-09-02 13:00:00 -- -- -- 18 Este 0 -- -- --
2018-09-02 12:00:00 -- -- -- 17 Este 0 -- -- --
2018-09-02 11:00:00 -- -- -- 10 Norte 0 -- -- --
2018-09-02 10:00:00 -- -- -- 5 Norte 0 -- -- --
2018-09-02 09:00:00 -- -- -- 6 Sur 0 -- -- --
2018-09-02 08:00:00 -- -- -- 12 Oeste 0 -- -- --
2018-09-02 07:00:00 -- -- -- 7 Sur 0 -- -- --
2018-09-02 06:00:00 -- -- -- 9 Oeste 0 -- -- --
2018-09-02 05:00:00 -- -- -- 9 Sur 0 -- -- --
2018-09-02 04:00:00 -- -- -- 9 Oeste 0 -- -- --
2018-09-02 03:00:00 -- -- -- 9 Oeste 0 -- -- --
2018-09-02 02:00:00 -- -- -- 8 Oeste 0 -- -- --
2018-09-02 01:00:00 -- -- -- 8 Oeste 0 -- -- --
2018-09-02 00:00:00 -- -- -- 9 Este 0 -- -- --
2018-09-01 23:00:00 -- -- -- 14 Este 0 -- -- --
2018-09-01 22:00:00 -- -- -- 15 Este 0 -- -- --
2018-09-01 21:00:00 -- -- -- 18 Este 0 -- -- --
2018-09-01 20:00:00 -- -- -- 27 Norte 0 -- -- --
2018-09-01 19:00:00 -- -- -- 22 Este 0 -- -- --
2018-09-01 18:00:00 -- -- -- 24 Este 0 -- -- --
2018-09-01 17:00:00 -- -- -- 25 Este 0 -- -- --
2018-09-01 16:00:00 -- -- -- 26 Este 0 -- -- --
2018-09-01 15:00:00 -- -- -- 24 Este 0 -- -- --
2018-09-01 14:00:00 -- -- -- 24 Norte 0 -- -- --
2018-09-01 13:00:00 -- -- -- 22 Nordeste 0 -- -- --
2018-09-01 12:00:00 -- -- -- 17 Este 0 -- -- --
2018-09-01 11:00:00 -- -- -- 14 Este 0 -- -- --
2018-09-01 10:00:00 -- -- -- 12 Este 0 -- -- --
2018-09-01 09:00:00 -- -- -- 5 Oeste 0 -- -- --
2018-09-01 08:00:00 -- -- -- 6 Sur 0 -- -- --
2018-09-01 07:00:00 -- -- -- 8 Oeste 0 -- -- --
2018-09-01 06:00:00 -- -- -- 8 Sur 0 -- -- --
2018-09-01 05:00:00 -- -- -- 7 Oeste 0 -- -- --
2018-09-01 04:00:00 -- -- -- 9 Sur 0 -- -- --
2018-09-01 03:00:00 -- -- -- 8 Este 0 -- -- --
2018-09-01 02:00:00 -- -- -- 9 Este 0 -- -- --
2018-09-01 01:00:00 -- -- -- 10 Nordeste 0 -- -- --
2018-09-01 00:00:00 -- -- -- 10 Este 0 -- -- --
2018-08-31 23:00:00 -- -- -- 14 Este 0 -- -- --
2018-08-31 22:00:00 -- -- -- 14 Este 0 -- -- --
2018-08-31 21:00:00 -- -- -- 23 Este 0 -- -- --
2018-08-31 20:00:00 -- -- -- 25 Este 0 -- -- --
2018-08-31 19:00:00 -- -- -- 24 Este 0 -- -- --
2018-08-31 18:00:00 -- -- -- 23 Este 0 -- -- --
2018-08-31 17:00:00 -- -- -- 25 Norte 0 -- -- --
2018-08-31 16:00:00 -- -- -- 22 Norte 0 -- -- --
2018-08-31 15:00:00 -- -- -- 34 Norte 0 -- -- --
2018-08-31 14:00:00 -- -- -- 22 Norte 0 -- -- --
2018-08-31 13:00:00 -- -- -- 25 Este 0 -- -- --
2018-08-31 12:00:00 -- -- -- 19 Este 0 -- -- --
2018-08-31 11:00:00 -- -- -- 18 Norte 0 -- -- --
2018-08-31 10:00:00 -- -- -- 10 Este 0 -- -- --
2018-08-31 09:00:00 -- -- -- 6 Sur 0 -- -- --
2018-08-31 08:00:00 -- -- -- 8 Sur 0 -- -- --
2018-08-31 07:00:00 -- -- -- 6 Sur 0 -- -- --
2018-08-31 06:00:00 -- -- -- 7 Sur 0 -- -- --
2018-08-31 05:00:00 -- -- -- 6 Sur 0 -- -- --
2018-08-31 04:00:00 -- -- -- 6 Este 0 -- -- --
2018-08-31 03:00:00 -- -- -- 6 Este 0 -- -- --
2018-08-31 02:00:00 -- -- -- 9 Este 0 -- -- --
2018-08-31 01:00:00 -- -- -- 9 Este 0 -- -- --
2018-08-31 00:00:00 -- -- -- 10 Este 0 -- -- --
2018-08-30 23:00:00 -- -- -- 10 Este 0 -- -- --
2018-08-30 22:00:00 -- -- -- 12 Este 0 -- -- --
2018-08-30 21:00:00 -- -- -- 19 Este 0 -- -- --
2018-08-30 20:00:00 -- -- -- 24 Este 0 -- -- --
2018-08-30 19:00:00 -- -- -- 23 Este 0 -- -- --
2018-08-30 18:00:00 -- -- -- 26 Este 0 -- -- --
2018-08-30 17:00:00 -- -- -- 23 Norte 0 -- -- --
2018-08-30 16:00:00 -- -- -- 26 Este 0 -- -- --
2018-08-30 15:00:00 -- -- -- 25 Este 0 -- -- --
2018-08-30 14:00:00 -- -- -- 25 Norte 0 -- -- --
2018-08-30 13:00:00 -- -- -- 21 Este 0 -- -- --
2018-08-30 12:00:00 -- -- -- 14 Este 0 -- -- --
2018-08-30 11:00:00 -- -- -- 13 Este 0 -- -- --
2018-08-30 10:00:00 -- -- -- 13 Este 0 -- -- --
2018-08-30 09:00:00 -- -- -- 11 Norte 0 -- -- --
2018-08-30 08:00:00 -- -- -- 13 Norte 0 -- -- --
2018-08-30 07:00:00 -- -- -- 11 Este 0 -- -- --
2018-08-30 06:00:00 -- -- -- 9 Este 0 -- -- --
2018-08-30 05:00:00 -- -- -- 10 Este 0 -- -- --
2018-08-30 04:00:00 -- -- -- 10 Este 0 -- -- --
2018-08-30 03:00:00 -- -- -- 13 Este 0 -- -- --
2018-08-30 02:00:00 -- -- -- 14 Este 0 -- -- --
2018-08-30 01:00:00 -- -- -- 10 Este 0 -- -- --
2018-08-30 00:00:00 -- -- -- 17 Este 0 -- -- --
2018-08-29 23:00:00 -- -- -- 22 Este 0 -- -- --
2018-08-29 22:00:00 -- -- -- 22 Norte 0 -- -- --
2018-08-29 21:00:00 -- -- -- 24 Este 0 -- -- --
2018-08-29 20:00:00 -- -- -- 29 Norte 0 -- -- --
2018-08-29 19:00:00 -- -- -- 30 Norte 0 -- -- --
2018-08-29 18:00:00 -- -- -- 35 Norte 0 -- -- --
2018-08-29 17:00:00 -- -- -- 41 Norte 0 -- -- --
2018-08-29 16:00:00 -- -- -- 24 Norte 0 -- -- --
2018-08-29 15:00:00 -- -- -- 24 Este 0 -- -- --
2018-08-29 14:00:00 -- -- -- 21 Norte 0 -- -- --
2018-08-29 13:00:00 -- -- -- 22 Este 0 -- -- --
2018-08-29 12:00:00 -- -- -- 16 Este 0 -- -- --
2018-08-29 11:00:00 -- -- -- 13 Este 0 -- -- --
2018-08-29 10:00:00 -- -- -- 10 Este 0 -- -- --
2018-08-29 09:00:00 -- -- -- 7 Sur 0 -- -- --
2018-08-29 08:00:00 -- -- -- 7 Sur 0 -- -- --
2018-08-29 07:00:00 -- -- -- 5 Sur 0 -- -- --
2018-08-29 06:00:00 -- -- -- 8 Sur 0 -- -- --
2018-08-29 05:00:00 -- -- -- 7 Este 0 -- -- --
2018-08-29 04:00:00 -- -- -- 8 Este 0 -- -- --
2018-08-29 03:00:00 -- -- -- 9 Este 0 -- -- --
2018-08-29 02:00:00 -- -- -- 11 Este 0 -- -- --
2018-08-29 01:00:00 -- -- -- 8 Oeste 0 -- -- --
2018-08-29 00:00:00 -- -- -- 11 Oeste 0 -- -- --
2018-08-28 23:00:00 -- -- -- 13 Sur 0 -- -- --
2018-08-28 22:00:00 -- -- -- 13 Este 0 -- -- --
2018-08-28 21:00:00 -- -- -- 36 Norte 0 -- -- --
2018-08-28 20:00:00 -- -- -- 28 Oeste 0 -- -- --
2018-08-28 19:00:00 -- -- -- 29 Oeste 0 -- -- --
2018-08-28 18:00:00 -- -- -- 32 Oeste 0 -- -- --
2018-08-28 17:00:00 -- -- -- 38 Sur 0 -- -- --
2018-08-28 16:00:00 -- -- -- 35 Este 0 -- -- --
2018-08-28 15:00:00 -- -- -- 35 Este 0 -- -- --
2018-08-28 14:00:00 -- -- -- 29 Este 0 -- -- --
2018-08-28 13:00:00 -- -- -- 26 Este 0 -- -- --
2018-08-28 12:00:00 -- -- -- 18 Este 0 -- -- --
2018-08-28 11:00:00 -- -- -- 15 Este 0 -- -- --
2018-08-28 10:00:00 -- -- -- 14 Este 0 -- -- --
2018-08-28 09:00:00 -- -- -- 7 Oeste 0 -- -- --
2018-08-28 08:00:00 -- -- -- 9 Oeste 0 -- -- --
2018-08-28 07:00:00 -- -- -- 10 Sur 0 -- -- --
2018-08-28 06:00:00 -- -- -- 10 Sur 0 -- -- --
2018-08-28 05:00:00 -- -- -- 9 Sur 0 -- -- --
2018-08-28 04:00:00 -- -- -- 10 Oeste 0 -- -- --
2018-08-28 03:00:00 -- -- -- 8 Oeste 0 -- -- --
2018-08-28 02:00:00 -- -- -- 10 Sur 0 -- -- --
2018-08-28 01:00:00 -- -- -- 11 Sur 0 -- -- --
2018-08-28 00:00:00 -- -- -- 9 Oeste 0 -- -- --
2018-08-27 23:00:00 -- -- -- 9 Este 0 -- -- --
2018-08-27 22:00:00 -- -- -- 12 Este 0 -- -- --
2018-08-27 21:00:00 -- -- -- 17 Sur 0 -- -- --
2018-08-27 20:00:00 -- -- -- 19 Este 0 -- -- --
2018-08-27 19:00:00 -- -- -- 23 Este 0 -- -- --
2018-08-27 18:00:00 -- -- -- 21 Este 0 -- -- --
2018-08-27 17:00:00 -- -- -- 21 Este 0 -- -- --
2018-08-27 16:00:00 -- -- -- 23 Este 0 -- -- --
2018-08-27 15:00:00 -- -- -- 23 Este 0 -- -- --
2018-08-27 14:00:00 -- -- -- 18 Este 0 -- -- --
2018-08-27 13:00:00 -- -- -- 17 Este 0 -- -- --
2018-08-27 12:00:00 -- -- -- 16 Este 0 -- -- --
2018-08-27 11:00:00 -- -- -- 16 Este 0 -- -- --
2018-08-27 10:00:00 -- -- -- 6 Este 0 -- -- --
2018-08-27 09:00:00 -- -- -- 9 Oeste 0 -- -- --
2018-08-27 08:00:00 -- -- -- 7 Oeste 0 -- -- --
2018-08-27 07:00:00 -- -- -- 8 Sur 0 -- -- --
2018-08-27 06:00:00 -- -- -- 8 Sur 0 -- -- --
2018-08-27 05:00:00 -- -- -- 8 Oeste 0 -- -- --
2018-08-27 04:00:00 -- -- -- 8 Oeste 0 -- -- --
2018-08-27 03:00:00 -- -- -- 9 Sur 0 -- -- --
2018-08-27 02:00:00 -- -- -- 8 Este 0 -- -- --
2018-08-27 01:00:00 -- -- -- 13 Este 0 -- -- --
2018-08-27 00:00:00 -- -- -- 13 Este 0 -- -- --
2018-08-26 23:00:00 -- -- -- 12 Este 0 -- -- --
2018-08-26 22:00:00 -- -- -- 12 Este 0 -- -- --
2018-08-26 21:00:00 -- -- -- 21 Norte 0 -- -- --
2018-08-26 20:00:00 -- -- -- 19 Este 0 -- -- --
2018-08-26 19:00:00 -- -- -- 23 Oeste 0 -- -- --
2018-08-26 18:00:00 -- -- -- 23 Oeste 0 -- -- --
2018-08-26 17:00:00 -- -- -- 26 Oeste 0 -- -- --
2018-08-26 16:00:00 -- -- -- 27 Oeste 0 -- -- --
2018-08-26 15:00:00 -- -- -- 21 Norte 0 -- -- --
2018-08-26 14:00:00 -- -- -- 12 Norte 0 -- -- --
2018-08-26 13:00:00 -- -- -- 13 Norte 0 -- -- --
2018-08-26 12:00:00 -- -- -- 11 Norte 0 -- -- --
2018-08-26 11:00:00 -- -- -- 11 Este 0 -- -- --
2018-08-26 10:00:00 -- -- -- 6 Este 0 -- -- --
2018-08-26 09:00:00 -- -- -- 6 Sur 0 -- -- --
2018-08-26 08:00:00 -- -- -- 7 Sur 0 -- -- --
2018-08-26 07:00:00 -- -- -- 8 Oeste 0 -- -- --
2018-08-26 06:00:00 -- -- -- 8 Sur 0 -- -- --
2018-08-26 05:00:00 -- -- -- 8 Sur 0 -- -- --
2018-08-26 04:00:00 -- -- -- 7 Sur 0 -- -- --
2018-08-26 03:00:00 -- -- -- 8 Este 0 -- -- --
2018-08-26 02:00:00 -- -- -- 9 Este 0 -- -- --
2018-08-26 01:00:00 -- -- -- 9 Este 0 -- -- --
2018-08-26 00:00:00 -- -- -- 12 Este 0 -- -- --
2018-08-25 23:00:00 -- -- -- 20 Este 0 -- -- --
2018-08-25 22:00:00 -- -- -- 18 Este 0 -- -- --
2018-08-25 21:00:00 -- -- -- 20 Norte 0 -- -- --
2018-08-25 20:00:00 -- -- -- 26 Este 0 -- -- --
2018-08-25 19:00:00 -- -- -- 25 Norte 0 -- -- --
2018-08-25 18:00:00 -- -- -- 27 Norte 0 -- -- --
2018-08-25 17:00:00 -- -- -- 25 Norte 0 -- -- --
2018-08-25 16:00:00 -- -- -- 23 Norte 0 -- -- --
2018-08-25 15:00:00 -- -- -- 27 Norte 0 -- -- --
2018-08-25 14:00:00 -- -- -- 20 Este 0 -- -- --
2018-08-25 13:00:00 -- -- -- 27 Este 0 -- -- --
2018-08-25 12:00:00 -- -- -- 21 Este 0 -- -- --
2018-08-25 11:00:00 -- -- -- 20 Norte 0 -- -- --
2018-08-25 10:00:00 -- -- -- 17 Nordeste 0 -- -- --
2018-08-25 09:00:00 -- -- -- 9 Este 0 -- -- --
2018-08-25 08:00:00 -- -- -- 8 Este 0 -- -- --
2018-08-25 07:00:00 -- -- -- 9 Este 0 -- -- --
2018-08-25 06:00:00 -- -- -- 7 Este 0 -- -- --
2018-08-25 05:00:00 -- -- -- 7 Este 0 -- -- --
2018-08-25 04:00:00 -- -- -- 9 Este 0 -- -- --
2018-08-25 03:00:00 -- -- -- 9 Este 0 -- -- --
2018-08-25 02:00:00 -- -- -- 9 Este 0 -- -- --
2018-08-25 01:00:00 -- -- -- 15 Este 0 -- -- --
2018-08-25 00:00:00 -- -- -- 17 Este 0 -- -- --
2018-08-24 23:00:00 -- -- -- 20 Este 0 -- -- --
2018-08-24 22:00:00 -- -- -- 19 Este 0 -- -- --
2018-08-24 21:00:00 -- -- -- 19 Este 0 -- -- --
2018-08-24 20:00:00 -- -- -- 30 Norte 0 -- -- --
2018-08-24 19:00:00 -- -- -- 26 Este 0 -- -- --
2018-08-24 18:00:00 -- -- -- 24 Este 0 -- -- --
2018-08-24 17:00:00 -- -- -- 26 Norte 0 -- -- --
2018-08-24 16:00:00 -- -- -- 27 Este 0 -- -- --
2018-08-24 15:00:00 -- -- -- 23 Este 0 -- -- --
2018-08-24 14:00:00 -- -- -- 18 Este 0 -- -- --
2018-08-24 13:00:00 -- -- -- 14 Norte 0 -- -- --
2018-08-24 12:00:00 -- -- -- 15 Este 0 -- -- --
2018-08-24 11:00:00 -- -- -- 13 Norte 0 -- -- --
2018-08-24 10:00:00 -- -- -- 8 Norte 0 -- -- --
2018-08-24 09:00:00 -- -- -- 8 Oeste 0 -- -- --
2018-08-24 08:00:00 -- -- -- 8 Sur 0 -- -- --
2018-08-24 07:00:00 -- -- -- 15 Sudeste 0 -- -- --
2018-08-24 06:00:00 -- -- -- 13 Sur 0 -- -- --
2018-08-24 05:00:00 -- -- -- 9 Este 0 -- -- --
2018-08-24 04:00:00 -- -- -- 10 Este 0 -- -- --
2018-08-24 03:00:00 -- -- -- 8 Este 0 -- -- --
2018-08-24 02:00:00 -- -- -- 8 Este 0 -- -- --
2018-08-24 01:00:00 -- -- -- 9 Este 0 -- -- --
2018-08-24 00:00:00 -- -- -- 14 Este 0 -- -- --